createdAt,value
2018-12-20T00:01:23.964Z,7.00
2018-12-20T00:03:52.157Z,7.00
2018-12-20T00:06:20.914Z,7.00
2018-12-20T00:08:49.119Z,7.00
2018-12-20T00:11:17.282Z,7.00
2018-12-20T00:13:45.368Z,7.00
2018-12-20T00:16:13.638Z,7.00
2018-12-20T00:18:41.916Z,6.90
2018-12-20T00:21:10.059Z,6.90
2018-12-20T00:23:38.200Z,6.90
2018-12-20T00:26:06.321Z,6.90
2018-12-20T00:28:34.573Z,6.90
2018-12-20T00:31:03.276Z,6.90
2018-12-20T00:33:31.703Z,6.80
2018-12-20T00:35:59.966Z,6.70
2018-12-20T00:38:28.091Z,6.60
2018-12-20T00:40:57.075Z,6.60
2018-12-20T00:43:25.183Z,6.50
2018-12-20T00:45:53.276Z,6.50
2018-12-20T00:48:21.431Z,6.50
2018-12-20T00:50:49.686Z,6.60
2018-12-20T00:53:17.879Z,6.60
2018-12-20T00:55:46.007Z,6.70
2018-12-20T00:58:14.189Z,6.70
2018-12-20T01:00:42.465Z,6.80
2018-12-20T01:03:10.582Z,6.80
2018-12-20T01:05:38.755Z,6.70
2018-12-20T01:08:07.002Z,6.80
2018-12-20T01:10:35.273Z,6.80
2018-12-20T01:13:03.793Z,6.80
2018-12-20T01:15:32.101Z,6.70
2018-12-20T01:18:00.244Z,6.70
2018-12-20T01:20:28.322Z,6.80
2018-12-20T01:22:56.412Z,6.80
2018-12-20T01:25:24.678Z,6.80
2018-12-20T01:27:53.559Z,6.80
2018-12-20T01:30:21.648Z,6.90
2018-12-20T01:32:49.976Z,6.90
2018-12-20T01:35:18.163Z,6.90
2018-12-20T01:37:46.414Z,7.00
2018-12-20T01:40:14.626Z,6.90
2018-12-20T01:42:42.912Z,6.90
2018-12-20T01:45:11.025Z,6.70
2018-12-20T01:47:39.148Z,6.70
2018-12-20T01:50:07.981Z,6.60
2018-12-20T01:52:36.276Z,6.70
2018-12-20T01:55:05.066Z,6.70
2018-12-20T01:57:33.327Z,6.80
2018-12-20T02:00:01.594Z,6.80
2018-12-20T02:02:30.276Z,6.90
2018-12-20T02:04:58.465Z,6.90
2018-12-20T02:07:26.727Z,6.90
2018-12-20T02:09:54.959Z,6.90
2018-12-20T02:12:23.423Z,6.90
2018-12-20T02:14:51.804Z,6.80
2018-12-20T02:17:20.059Z,6.80
2018-12-20T02:19:48.315Z,6.80
2018-12-20T02:22:16.572Z,6.80
2018-12-20T02:24:44.770Z,6.80
2018-12-20T02:27:12.902Z,6.80
2018-12-20T02:29:40.989Z,6.80
2018-12-20T02:32:09.104Z,6.80
2018-12-20T02:34:37.254Z,6.80
2018-12-20T02:37:06.118Z,6.80
2018-12-20T02:39:34.192Z,6.80
2018-12-20T02:42:02.479Z,6.80
2018-12-20T02:44:31.215Z,6.80
2018-12-20T02:46:59.354Z,6.90
2018-12-20T02:49:27.527Z,6.90
2018-12-20T02:51:55.692Z,6.90
2018-12-20T02:54:24.273Z,6.80
2018-12-20T02:56:52.625Z,6.80
2018-12-20T02:59:20.769Z,6.70
2018-12-20T03:01:48.943Z,6.60
2018-12-20T03:04:17.074Z,6.60
2018-12-20T03:06:45.179Z,6.50
2018-12-20T03:09:13.397Z,6.50
2018-12-20T03:11:42.012Z,6.40
2018-12-20T03:14:10.104Z,6.30
2018-12-20T03:16:38.668Z,6.30
2018-12-20T03:19:07.508Z,6.30
2018-12-20T03:21:35.749Z,6.30
2018-12-20T03:24:04.679Z,6.30
2018-12-20T03:26:33.746Z,6.20
2018-12-20T03:29:02.000Z,6.20
2018-12-20T03:31:30.442Z,6.30
2018-12-20T03:33:58.635Z,6.30
2018-12-20T03:36:26.729Z,6.30
2018-12-20T03:38:54.788Z,6.40
2018-12-20T03:41:22.868Z,6.40
2018-12-20T03:43:50.899Z,6.40
2018-12-20T03:46:19.124Z,6.50
2018-12-20T03:48:47.369Z,6.50
2018-12-20T03:51:15.667Z,6.60
2018-12-20T03:53:43.953Z,6.60
2018-12-20T03:56:12.392Z,6.70
2018-12-20T03:58:40.725Z,6.80
2018-12-20T04:01:09.388Z,6.90
2018-12-20T04:03:37.567Z,6.90
2018-12-20T04:06:05.853Z,6.90
2018-12-20T04:08:34.052Z,6.90
2018-12-20T04:11:02.389Z,7.00
2018-12-20T04:13:30.647Z,7.00
2018-12-20T04:15:58.886Z,7.00
2018-12-20T04:18:27.636Z,7.10
2018-12-20T04:20:55.866Z,7.10
2018-12-20T04:23:24.004Z,7.10
2018-12-20T04:25:52.301Z,7.10
2018-12-20T04:28:20.475Z,7.10
2018-12-20T04:30:48.804Z,7.10
2018-12-20T04:33:17.067Z,7.10
2018-12-20T04:35:45.254Z,7.10
2018-12-20T04:38:13.360Z,7.10
2018-12-20T04:40:42.710Z,7.10
2018-12-20T04:43:11.128Z,7.00
2018-12-20T04:45:46.696Z,7.00
2018-12-20T04:48:09.844Z,6.90
2018-12-20T04:50:38.646Z,7.00
2018-12-20T04:53:07.777Z,7.00
2018-12-20T04:55:36.062Z,7.00
2018-12-20T04:58:04.634Z,7.00
2018-12-20T05:00:33.102Z,7.00
2018-12-20T05:03:01.259Z,7.00
2018-12-20T05:05:29.432Z,7.00
2018-12-20T05:07:57.550Z,7.00
2018-12-20T05:10:26.055Z,7.00
2018-12-20T05:12:54.605Z,7.00
2018-12-20T05:15:22.779Z,6.90
2018-12-20T05:17:50.968Z,7.00
2018-12-20T05:20:19.100Z,7.00
2018-12-20T05:22:47.383Z,7.00
2018-12-20T05:25:15.543Z,7.00
2018-12-20T05:27:43.863Z,7.00
2018-12-20T05:30:12.184Z,7.00
2018-12-20T05:32:40.620Z,7.00
2018-12-20T05:35:08.772Z,7.00
2018-12-20T05:37:37.707Z,7.10
2018-12-20T05:40:06.667Z,7.10
2018-12-20T05:42:34.954Z,7.10
2018-12-20T05:45:03.927Z,7.10
2018-12-20T05:47:32.101Z,7.10
2018-12-20T05:50:00.192Z,7.00
2018-12-20T05:52:28.300Z,7.00
2018-12-20T05:54:57.065Z,7.00
2018-12-20T05:57:25.216Z,7.00
2018-12-20T05:59:53.403Z,7.00
2018-12-20T06:02:21.648Z,7.10
2018-12-20T06:04:49.872Z,7.00
2018-12-20T06:07:18.030Z,7.00
2018-12-20T06:09:46.093Z,7.10
2018-12-20T06:12:14.280Z,7.10
2018-12-20T06:14:42.543Z,7.10
2018-12-20T06:17:10.888Z,7.10
2018-12-20T06:19:39.014Z,7.10
2018-12-20T06:22:07.443Z,7.10
2018-12-20T06:24:35.664Z,7.20
2018-12-20T06:27:03.747Z,7.20
2018-12-20T06:29:32.748Z,7.10
2018-12-20T06:32:00.896Z,7.20
2018-12-20T06:34:29.047Z,7.20
2018-12-20T06:36:57.145Z,7.20
2018-12-20T06:39:25.175Z,7.20
2018-12-20T06:41:53.295Z,7.30
2018-12-20T06:44:21.381Z,7.30
2018-12-20T06:46:50.055Z,7.30
2018-12-20T06:49:18.227Z,7.30
2018-12-20T06:51:46.268Z,7.10
2018-12-20T06:54:14.380Z,7.00
2018-12-20T06:56:42.447Z,6.90
2018-12-20T06:59:10.621Z,6.90
2018-12-20T07:01:39.516Z,6.90
2018-12-20T07:04:07.588Z,7.00
2018-12-20T07:06:35.759Z,7.00
2018-12-20T07:09:06.596Z,6.90
2018-12-20T07:11:34.639Z,6.90
2018-12-20T07:14:03.037Z,6.90
2018-12-20T07:16:31.436Z,7.00
2018-12-20T07:18:59.507Z,7.00
2018-12-20T07:21:27.557Z,7.10
2018-12-20T07:23:55.647Z,7.10
2018-12-20T07:26:23.728Z,7.10
2018-12-20T07:28:52.108Z,7.00
2018-12-20T07:31:20.700Z,7.00
2018-12-20T07:33:48.816Z,6.90
2018-12-20T07:36:17.256Z,6.90
2018-12-20T07:38:45.321Z,6.90
2018-12-20T07:41:13.520Z,6.90
2018-12-20T07:43:41.555Z,6.80
2018-12-20T07:46:09.641Z,6.70
2018-12-20T07:48:37.760Z,6.70
2018-12-20T07:51:05.908Z,6.70
2018-12-20T07:53:33.944Z,6.70
2018-12-20T07:56:02.040Z,6.80
2018-12-20T07:58:30.112Z,6.90
2018-12-20T08:01:00.215Z,6.90
2018-12-20T08:03:28.267Z,7.00
2018-12-20T08:05:56.375Z,7.00
2018-12-20T08:08:24.555Z,7.00
2018-12-20T08:10:52.608Z,7.00
2018-12-20T08:13:21.517Z,7.10
2018-12-20T08:15:50.730Z,7.10
2018-12-20T08:18:18.988Z,7.20
2018-12-20T08:20:47.024Z,7.30
2018-12-20T08:23:15.155Z,7.40
2018-12-20T08:25:44.123Z,7.50
2018-12-20T08:28:12.612Z,7.50
2018-12-20T08:30:40.715Z,7.60
2018-12-20T08:33:08.972Z,7.70
2018-12-20T08:35:37.732Z,7.70
2018-12-20T08:38:05.845Z,7.80
2018-12-20T08:40:34.021Z,7.90
2018-12-20T08:43:02.085Z,7.90
2018-12-20T08:45:30.156Z,8.00
2018-12-20T08:47:58.228Z,8.00
2018-12-20T08:50:26.304Z,8.00
2018-12-20T08:52:55.047Z,8.00
2018-12-20T08:55:23.110Z,8.00
2018-12-20T08:57:51.245Z,8.10
2018-12-20T09:00:19.316Z,8.20
2018-12-20T09:02:47.391Z,8.10
2018-12-20T09:05:15.464Z,8.10
2018-12-20T09:07:43.535Z,8.10
2018-12-20T09:10:11.636Z,8.10
2018-12-20T09:12:39.673Z,8.10
2018-12-20T09:15:07.756Z,8.10
2018-12-20T09:17:35.828Z,8.10
2018-12-20T09:20:05.564Z,8.20
2018-12-20T09:22:34.129Z,8.10
2018-12-20T09:25:02.273Z,8.10
2018-12-20T09:27:30.347Z,8.10
2018-12-20T09:29:58.459Z,8.10
2018-12-20T09:32:26.621Z,8.10
2018-12-20T09:34:54.743Z,8.00
2018-12-20T09:37:22.753Z,8.00
2018-12-20T09:39:51.246Z,8.00
2018-12-20T09:42:19.503Z,8.00
2018-12-20T09:44:47.520Z,8.00
2018-12-20T09:47:21.336Z,8.00
2018-12-20T09:49:49.448Z,8.00
2018-12-20T09:52:17.645Z,8.00
2018-12-20T09:54:45.726Z,8.00
2018-12-20T09:57:14.096Z,8.00
2018-12-20T09:59:42.165Z,8.00
2018-12-20T10:02:10.495Z,8.00
2018-12-20T10:04:38.629Z,8.00
2018-12-20T10:07:06.800Z,8.10
2018-12-20T10:09:34.880Z,8.10
2018-12-20T10:12:02.946Z,8.20
2018-12-20T10:14:31.132Z,8.20
2018-12-20T10:16:59.301Z,8.30
2018-12-20T10:19:27.387Z,8.30
2018-12-20T10:21:55.461Z,8.30
2018-12-20T10:24:23.724Z,8.30
2018-12-20T10:26:51.799Z,8.30
2018-12-20T10:29:19.848Z,8.30
2018-12-20T10:31:47.932Z,8.40
2018-12-20T10:34:16.011Z,8.40
2018-12-20T10:36:44.185Z,8.50
2018-12-20T10:39:12.764Z,8.50
2018-12-20T10:41:40.831Z,8.50
2018-12-20T10:44:08.864Z,8.50
2018-12-20T10:46:36.899Z,8.50
2018-12-20T10:49:04.948Z,8.40
2018-12-20T10:51:33.037Z,8.40
2018-12-20T10:54:01.108Z,8.50
2018-12-20T10:56:29.180Z,8.50
2018-12-20T10:58:57.239Z,8.50
2018-12-20T11:01:31.068Z,8.50
2018-12-20T11:04:04.880Z,8.60
2018-12-20T11:06:38.832Z,8.60
2018-12-20T11:09:12.784Z,8.60
2018-12-20T11:11:46.601Z,8.60
2018-12-20T11:14:14.679Z,8.60
2018-12-20T11:16:42.741Z,8.60
2018-12-20T11:19:10.904Z,8.70
2018-12-20T11:21:38.991Z,8.70
2018-12-20T11:24:07.168Z,8.70
2018-12-20T11:26:35.240Z,8.70
2018-12-20T11:29:04.121Z,8.70
2018-12-20T11:31:32.208Z,8.70
2018-12-20T11:34:00.289Z,8.60
2018-12-20T11:36:28.347Z,8.60
2018-12-20T11:38:56.481Z,8.50
2018-12-20T11:41:24.629Z,8.50
2018-12-20T11:43:52.776Z,8.50
2018-12-20T11:46:20.854Z,8.50
2018-12-20T11:48:48.896Z,8.50
2018-12-20T11:51:16.987Z,8.50
2018-12-20T11:53:45.044Z,8.60
2018-12-20T11:56:13.094Z,8.50
2018-12-20T11:58:41.213Z,8.50
2018-12-20T12:01:09.283Z,8.40
2018-12-20T12:03:38.604Z,8.40
2018-12-20T12:06:06.787Z,8.40
2018-12-20T12:08:35.272Z,8.50
2018-12-20T12:11:03.424Z,8.50
2018-12-20T12:13:31.496Z,8.50
2018-12-20T12:15:59.577Z,8.60
2018-12-20T12:18:27.751Z,8.70
2018-12-20T12:20:55.826Z,8.80
2018-12-20T12:23:23.847Z,8.80
2018-12-20T12:25:51.910Z,8.90
2018-12-20T12:28:20.849Z,8.90
2018-12-20T12:30:49.240Z,8.90
2018-12-20T12:33:17.304Z,8.90
2018-12-20T12:35:45.879Z,8.80
2018-12-20T12:38:14.058Z,8.80
2018-12-20T12:40:42.244Z,8.80
2018-12-20T12:43:10.319Z,8.90
2018-12-20T12:45:38.392Z,8.90
2018-12-20T12:48:06.460Z,8.90
2018-12-20T12:50:34.540Z,8.90
2018-12-20T12:53:02.607Z,8.90
2018-12-20T12:55:30.639Z,9.00
2018-12-20T12:58:04.599Z,9.10
2018-12-20T13:00:29.173Z,9.20
2018-12-20T13:02:57.232Z,9.40
2018-12-20T13:05:25.331Z,9.40
2018-12-20T13:07:54.283Z,9.50
2018-12-20T13:10:22.798Z,9.70
2018-12-20T13:12:50.884Z,9.70
2018-12-20T13:15:19.524Z,9.80
2018-12-20T13:17:47.533Z,9.80
2018-12-20T13:20:16.113Z,9.80
2018-12-20T13:22:44.295Z,9.80
2018-12-20T13:25:12.548Z,9.70
2018-12-20T13:27:40.584Z,9.70
2018-12-20T13:30:09.864Z,9.70
2018-12-20T13:32:38.959Z,9.70
2018-12-20T13:35:07.007Z,9.70
2018-12-20T13:37:35.099Z,9.70
2018-12-20T13:40:04.084Z,9.80
2018-12-20T13:42:32.181Z,9.80
2018-12-20T13:45:00.212Z,9.80
2018-12-20T13:47:28.400Z,9.70
2018-12-20T13:49:56.480Z,9.70
2018-12-20T13:52:24.552Z,9.60
2018-12-20T13:54:53.480Z,9.50
2018-12-20T13:57:21.624Z,9.40
2018-12-20T13:59:49.692Z,9.30
2018-12-20T14:02:17.821Z,9.30
2018-12-20T14:04:46.140Z,9.40
2018-12-20T14:07:14.515Z,9.40
2018-12-20T14:09:42.572Z,9.40
2018-12-20T14:12:10.654Z,9.40
2018-12-20T14:14:38.846Z,9.40
2018-12-20T14:17:06.860Z,9.40
2018-12-20T14:19:34.993Z,9.40
2018-12-20T14:22:03.064Z,9.30
2018-12-20T14:24:31.140Z,9.30
2018-12-20T14:26:59.213Z,9.20
2018-12-20T14:29:27.280Z,9.10
2018-12-20T14:31:55.347Z,9.10
2018-12-20T14:34:23.529Z,9.10
2018-12-20T14:36:51.630Z,9.10
2018-12-20T14:39:19.657Z,9.10
2018-12-20T14:41:47.709Z,9.00
2018-12-20T14:44:15.773Z,9.00
2018-12-20T14:46:43.797Z,9.00
2018-12-20T14:49:12.069Z,9.00
2018-12-20T14:51:40.136Z,9.00
2018-12-20T14:54:08.217Z,9.00
2018-12-20T14:56:36.238Z,9.00
2018-12-20T14:59:04.461Z,9.10
2018-12-20T15:01:32.489Z,9.10
2018-12-20T15:04:00.622Z,9.20
2018-12-20T15:06:28.643Z,9.30
2018-12-20T15:08:56.757Z,9.30
2018-12-20T15:11:24.788Z,9.40
2018-12-20T15:13:53.092Z,9.40
2018-12-20T15:16:21.200Z,9.40
2018-12-20T15:18:49.231Z,9.30
2018-12-20T15:21:17.329Z,9.30
2018-12-20T15:23:45.551Z,9.30
2018-12-20T15:26:13.561Z,9.20
2018-12-20T15:28:41.756Z,9.10
2018-12-20T15:31:09.814Z,9.10
2018-12-20T15:33:37.856Z,9.00
2018-12-20T15:36:06.002Z,8.90
2018-12-20T15:38:34.025Z,8.90
2018-12-20T15:41:02.190Z,8.80
2018-12-20T15:43:31.765Z,8.80
2018-12-20T15:45:59.832Z,8.80
2018-12-20T15:48:27.919Z,8.70
2018-12-20T15:50:55.967Z,8.70
2018-12-20T15:53:24.097Z,8.70
2018-12-20T15:55:52.243Z,8.70
2018-12-20T15:58:20.283Z,8.60
2018-12-20T16:00:48.379Z,8.60
2018-12-20T16:03:16.521Z,8.60
2018-12-20T16:05:44.605Z,8.50
2018-12-20T16:08:12.611Z,8.50
2018-12-20T16:10:40.744Z,8.40
2018-12-20T16:13:08.932Z,8.40
2018-12-20T16:15:36.975Z,8.40
2018-12-20T16:18:05.152Z,8.30
2018-12-20T16:20:34.064Z,8.30
2018-12-20T16:23:02.713Z,8.30
2018-12-20T16:25:30.901Z,8.30
2018-12-20T16:27:59.691Z,8.20
2018-12-20T16:30:27.827Z,8.20
2018-12-20T16:32:55.957Z,8.10
2018-12-20T16:35:24.734Z,8.10
2018-12-20T16:37:53.819Z,8.10
2018-12-20T16:40:21.905Z,8.10
2018-12-20T16:42:49.978Z,8.10
2018-12-20T16:45:18.171Z,8.10
2018-12-20T16:47:46.761Z,8.10
2018-12-20T16:50:14.823Z,8.10
2018-12-20T16:52:42.904Z,8.10
2018-12-20T16:55:10.965Z,8.10
2018-12-20T16:57:39.000Z,8.10
2018-12-20T17:00:10.822Z,8.20
2018-12-20T17:02:39.263Z,8.20
2018-12-20T17:05:08.206Z,8.20
2018-12-20T17:07:36.231Z,8.20
2018-12-20T17:10:04.921Z,8.10
2018-12-20T17:12:32.992Z,8.20
2018-12-20T17:15:01.069Z,8.20
2018-12-20T17:17:29.551Z,8.20
2018-12-20T17:19:57.606Z,8.20
2018-12-20T17:22:25.829Z,8.30
2018-12-20T17:24:53.871Z,8.30
2018-12-20T17:27:21.952Z,8.30
2018-12-20T17:29:50.668Z,8.40
2018-12-20T17:32:18.707Z,8.50
2018-12-20T17:34:46.783Z,8.50
2018-12-20T17:37:14.857Z,8.50
2018-12-20T17:39:42.924Z,8.50
2018-12-20T17:42:11.284Z,8.40
2018-12-20T17:44:39.580Z,8.40
2018-12-20T17:47:08.163Z,8.40
2018-12-20T17:49:37.055Z,8.40
2018-12-20T17:52:05.089Z,8.30
2018-12-20T17:54:33.307Z,8.40
2018-12-20T17:57:01.504Z,8.40
2018-12-20T17:59:29.548Z,8.40
2018-12-20T18:01:57.731Z,8.50
2018-12-20T18:04:26.436Z,8.50
2018-12-20T18:06:54.804Z,8.50
2018-12-20T18:09:22.899Z,8.50
2018-12-20T18:11:51.360Z,8.50
2018-12-20T18:14:19.540Z,8.40
2018-12-20T18:16:47.563Z,8.40
2018-12-20T18:19:15.608Z,8.40
2018-12-20T18:21:43.652Z,8.40
2018-12-20T18:24:11.728Z,8.40
2018-12-20T18:26:40.561Z,8.40
2018-12-20T18:29:08.789Z,8.40
2018-12-20T18:31:37.571Z,8.40
2018-12-20T18:34:06.087Z,8.40
2018-12-20T18:36:34.270Z,8.40
2018-12-20T18:39:02.507Z,8.40
2018-12-20T18:41:31.702Z,8.40
2018-12-20T18:43:59.783Z,8.40
2018-12-20T18:46:29.181Z,8.40
2018-12-20T18:48:57.408Z,8.40
2018-12-20T18:51:25.537Z,8.50
2018-12-20T18:53:53.626Z,8.50
2018-12-20T18:56:22.301Z,8.50
2018-12-20T18:58:50.467Z,8.60
2018-12-20T19:01:18.574Z,8.60
2018-12-20T19:03:46.626Z,8.60
2018-12-20T19:06:14.653Z,8.60
2018-12-20T19:08:42.763Z,8.60
2018-12-20T19:11:10.852Z,8.60
2018-12-20T19:13:38.920Z,8.70
2018-12-20T19:16:06.993Z,8.70
2018-12-20T19:18:35.074Z,8.70
2018-12-20T19:21:03.238Z,8.70
2018-12-20T19:23:31.279Z,8.80
2018-12-20T19:25:59.771Z,8.80
2018-12-20T19:28:27.877Z,8.80
2018-12-20T19:30:56.007Z,8.90
2018-12-20T19:33:24.123Z,8.90
2018-12-20T19:35:52.802Z,8.90
2018-12-20T19:38:21.887Z,8.90
2018-12-20T19:40:50.075Z,8.90
2018-12-20T19:43:18.132Z,8.90
2018-12-20T19:45:46.841Z,8.90
2018-12-20T19:48:14.912Z,8.90
2018-12-20T19:50:42.965Z,8.90
2018-12-20T19:53:11.677Z,8.90
2018-12-20T19:55:40.253Z,8.80
2018-12-20T19:58:08.357Z,8.80
2018-12-20T20:00:36.841Z,8.80
2018-12-20T20:03:05.555Z,8.80
2018-12-20T20:05:34.399Z,8.80
2018-12-20T20:08:02.775Z,8.80
2018-12-20T20:10:31.464Z,8.80
2018-12-20T20:12:59.508Z,8.70
2018-12-20T20:15:27.604Z,8.70
2018-12-20T20:17:55.688Z,8.70
2018-12-20T20:20:23.879Z,8.70
2018-12-20T20:22:52.037Z,8.70
2018-12-20T20:25:20.100Z,8.70
2018-12-20T20:27:48.115Z,8.70
2018-12-20T20:30:16.160Z,8.70
2018-12-20T20:32:45.329Z,8.70
2018-12-20T20:35:13.320Z,8.70
2018-12-20T20:37:41.604Z,8.70
2018-12-20T20:40:09.653Z,8.70
2018-12-20T20:42:37.677Z,8.70
2018-12-20T20:45:06.328Z,8.70
2018-12-20T20:47:35.212Z,8.70
2018-12-20T20:50:05.052Z,8.80
2018-12-20T20:52:33.139Z,8.80
2018-12-20T20:55:01.181Z,8.80
2018-12-20T20:57:29.264Z,8.80
2018-12-20T20:59:57.411Z,8.80
2018-12-20T21:02:25.502Z,8.80
2018-12-20T21:04:54.054Z,8.80
2018-12-20T21:07:22.079Z,8.80
2018-12-20T21:09:51.245Z,8.80
2018-12-20T21:12:23.034Z,8.90
2018-12-20T21:14:52.536Z,8.90
2018-12-20T21:17:20.999Z,8.90
2018-12-20T21:19:50.297Z,8.90
2018-12-20T21:22:18.572Z,9.00
2018-12-20T21:24:46.643Z,8.90
2018-12-20T21:27:14.717Z,8.90
2018-12-20T21:29:42.884Z,8.80
2018-12-20T21:32:10.977Z,8.80
2018-12-20T21:34:39.048Z,8.70
2018-12-20T21:37:07.092Z,8.80
2018-12-20T21:39:35.184Z,8.80
2018-12-20T21:42:03.357Z,8.70
2018-12-20T21:44:31.541Z,8.70
2018-12-20T21:46:59.631Z,8.70
2018-12-20T21:49:27.641Z,8.70
2018-12-20T21:51:55.683Z,8.70
2018-12-20T21:54:23.832Z,8.70
2018-12-20T21:56:51.884Z,8.70
2018-12-20T21:59:19.979Z,8.70
2018-12-20T22:01:48.098Z,8.70
2018-12-20T22:04:16.324Z,8.70
2018-12-20T22:06:44.363Z,8.70
2018-12-20T22:09:12.453Z,8.70
2018-12-20T22:11:40.548Z,8.70
2018-12-20T22:14:08.615Z,8.80
2018-12-20T22:16:36.916Z,8.80
2018-12-20T22:19:05.176Z,8.90
2018-12-20T22:21:35.879Z,8.90
2018-12-20T22:24:04.715Z,8.90
2018-12-20T22:26:32.773Z,9.00
2018-12-20T22:29:00.953Z,9.00
2018-12-20T22:31:29.124Z,9.00
2018-12-20T22:33:57.296Z,9.00
2018-12-20T22:36:26.428Z,9.00
2018-12-20T22:38:54.563Z,9.00
2018-12-20T22:41:22.661Z,9.00
2018-12-20T22:43:50.716Z,9.00
2018-12-20T22:46:19.115Z,9.00
2018-12-20T22:48:47.471Z,9.00
2018-12-20T22:51:16.023Z,9.00
2018-12-20T22:53:44.104Z,9.00
2018-12-20T22:56:12.136Z,9.00
2018-12-20T22:58:40.180Z,9.00
2018-12-20T23:01:08.232Z,9.00
2018-12-20T23:03:36.771Z,9.00
2018-12-20T23:06:04.850Z,9.10
2018-12-20T23:08:33.344Z,9.10
2018-12-20T23:11:01.471Z,9.10
2018-12-20T23:13:29.640Z,9.00
2018-12-20T23:15:57.694Z,9.00
2018-12-20T23:18:26.297Z,9.00
2018-12-20T23:20:54.787Z,9.00
2018-12-20T23:23:23.732Z,9.00
2018-12-20T23:25:51.768Z,9.00
2018-12-20T23:28:19.916Z,9.00
2018-12-20T23:30:48.743Z,9.10
2018-12-20T23:33:16.796Z,9.10
2018-12-20T23:35:45.144Z,9.10
2018-12-20T23:38:13.244Z,9.10
2018-12-20T23:40:41.315Z,9.10
2018-12-20T23:43:09.384Z,9.10
2018-12-20T23:45:37.456Z,9.20
2018-12-20T23:48:05.480Z,9.20
2018-12-20T23:50:33.526Z,9.20
2018-12-20T23:53:01.575Z,9.10
2018-12-20T23:55:29.648Z,9.10
2018-12-20T23:57:57.811Z,9.10
